sensor_id;sensor_type;location;lat;lon;timestamp;temperature;humidity
52555;DHT22;38455;52.710;6.502;2023-05-10T00:00:28;13.90;99.90
52555;DHT22;38455;52.710;6.502;2023-05-10T00:02:53;13.90;99.90
52555;DHT22;38455;52.710;6.502;2023-05-10T00:05:19;13.90;99.90
52555;DHT22;38455;52.710;6.502;2023-05-10T00:07:45;13.90;99.90
52555;DHT22;38455;52.710;6.502;2023-05-10T00:10:11;13.90;99.90
52555;DHT22;38455;52.710;6.502;2023-05-10T00:12:37;13.80;99.90
52555;DHT22;38455;52.710;6.502;2023-05-10T00:15:03;13.80;99.90
52555;DHT22;38455;52.710;6.502;2023-05-10T00:17:28;13.80;99.90
52555;DHT22;38455;52.710;6.502;2023-05-10T00:19:54;13.80;99.90
52555;DHT22;38455;52.710;6.502;2023-05-10T00:22:20;13.80;99.90
52555;DHT22;38455;52.710;6.502;2023-05-10T00:24:45;13.80;99.90
52555;DHT22;38455;52.710;6.502;2023-05-10T00:27:11;13.90;99.90
52555;DHT22;38455;52.710;6.502;2023-05-10T00:29:37;13.80;99.90
52555;DHT22;38455;52.710;6.502;2023-05-10T00:32:03;13.80;99.90
52555;DHT22;38455;52.710;6.502;2023-05-10T00:34:28;13.80;99.90
52555;DHT22;38455;52.710;6.502;2023-05-10T00:36:54;13.80;99.90
52555;DHT22;38455;52.710;6.502;2023-05-10T00:39:20;13.80;99.90
52555;DHT22;38455;52.710;6.502;2023-05-10T00:41:45;13.80;99.90
52555;DHT22;38455;52.710;6.502;2023-05-10T00:44:11;13.80;99.90
52555;DHT22;38455;52.710;6.502;2023-05-10T00:46:37;13.80;99.90
52555;DHT22;38455;52.710;6.502;2023-05-10T00:49:03;13.80;99.90
52555;DHT22;38455;52.710;6.502;2023-05-10T00:51:29;13.80;99.90
52555;DHT22;38455;52.710;6.502;2023-05-10T00:53:56;13.80;99.90
52555;DHT22;38455;52.710;6.502;2023-05-10T00:56:22;13.80;99.90
52555;DHT22;38455;52.710;6.502;2023-05-10T00:58:50;13.80;99.90
52555;DHT22;38455;52.710;6.502;2023-05-10T01:01:15;13.70;99.90
52555;DHT22;38455;52.710;6.502;2023-05-10T01:03:42;13.80;99.90
52555;DHT22;38455;52.710;6.502;2023-05-10T01:06:08;13.80;99.90
52555;DHT22;38455;52.710;6.502;2023-05-10T01:08:35;13.80;99.90
52555;DHT22;38455;52.710;6.502;2023-05-10T01:11:01;13.80;99.90
52555;DHT22;38455;52.710;6.502;2023-05-10T01:13:36;13.80;99.90
52555;DHT22;38455;52.710;6.502;2023-05-10T01:16:03;13.80;99.90
52555;DHT22;38455;52.710;6.502;2023-05-10T01:18:30;13.70;99.90
52555;DHT22;38455;52.710;6.502;2023-05-10T01:21:36;13.70;99.90
52555;DHT22;38455;52.710;6.502;2023-05-10T01:27:17;13.70;99.90
52555;DHT22;38455;52.710;6.502;2023-05-10T01:30:23;13.70;99.90
52555;DHT22;38455;52.710;6.502;2023-05-10T01:35:50;13.70;99.90
52555;DHT22;38455;52.710;6.502;2023-05-10T01:38:18;13.70;99.90
52555;DHT22;38455;52.710;6.502;2023-05-10T01:43:27;13.70;99.90
52555;DHT22;38455;52.710;6.502;2023-05-10T01:45:59;13.70;99.90
52555;DHT22;38455;52.710;6.502;2023-05-10T01:48:28;13.70;99.90
52555;DHT22;38455;52.710;6.502;2023-05-10T01:50:55;13.70;99.90
52555;DHT22;38455;52.710;6.502;2023-05-10T01:53:22;13.70;99.90
52555;DHT22;38455;52.710;6.502;2023-05-10T01:55:51;13.60;99.90
52555;DHT22;38455;52.710;6.502;2023-05-10T01:58:28;13.60;99.90
52555;DHT22;38455;52.710;6.502;2023-05-10T02:00:55;13.60;99.90
52555;DHT22;38455;52.710;6.502;2023-05-10T02:03:24;13.60;99.90
52555;DHT22;38455;52.710;6.502;2023-05-10T02:05:52;13.60;99.90
52555;DHT22;38455;52.710;6.502;2023-05-10T02:08:19;13.60;99.90
52555;DHT22;38455;52.710;6.502;2023-05-10T02:10:46;13.60;99.90
52555;DHT22;38455;52.710;6.502;2023-05-10T02:13:14;13.60;99.90
52555;DHT22;38455;52.710;6.502;2023-05-10T02:15:41;13.60;99.90
52555;DHT22;38455;52.710;6.502;2023-05-10T02:18:09;13.60;99.90
52555;DHT22;38455;52.710;6.502;2023-05-10T02:20:37;13.60;99.90
52555;DHT22;38455;52.710;6.502;2023-05-10T02:23:03;13.60;99.90
52555;DHT22;38455;52.710;6.502;2023-05-10T02:25:31;13.60;99.90
52555;DHT22;38455;52.710;6.502;2023-05-10T02:27:58;13.60;99.90
52555;DHT22;38455;52.710;6.502;2023-05-10T02:30:26;13.60;99.90
52555;DHT22;38455;52.710;6.502;2023-05-10T02:32:52;13.60;99.90
52555;DHT22;38455;52.710;6.502;2023-05-10T02:35:18;13.60;99.90
52555;DHT22;38455;52.710;6.502;2023-05-10T02:37:45;13.60;99.90
52555;DHT22;38455;52.710;6.502;2023-05-10T02:40:13;13.60;99.90
52555;DHT22;38455;52.710;6.502;2023-05-10T02:42:42;13.50;99.90
52555;DHT22;38455;52.710;6.502;2023-05-10T02:45:12;13.50;99.90
52555;DHT22;38455;52.710;6.502;2023-05-10T02:47:38;13.50;99.90
52555;DHT22;38455;52.710;6.502;2023-05-10T02:50:05;13.50;99.90
52555;DHT22;38455;52.710;6.502;2023-05-10T02:52:49;13.50;99.90
52555;DHT22;38455;52.710;6.502;2023-05-10T02:55:20;13.40;99.90
52555;DHT22;38455;52.710;6.502;2023-05-10T02:57:51;13.40;99.90
52555;DHT22;38455;52.710;6.502;2023-05-10T03:00:18;13.50;99.90
52555;DHT22;38455;52.710;6.502;2023-05-10T03:02:43;13.50;99.90
52555;DHT22;38455;52.710;6.502;2023-05-10T03:05:09;13.50;99.90
52555;DHT22;38455;52.710;6.502;2023-05-10T03:07:35;13.50;99.90
52555;DHT22;38455;52.710;6.502;2023-05-10T03:10:01;13.50;99.90
52555;DHT22;38455;52.710;6.502;2023-05-10T03:15:47;13.50;99.90
52555;DHT22;38455;52.710;6.502;2023-05-10T03:18:22;13.40;99.90
52555;DHT22;38455;52.710;6.502;2023-05-10T03:20:50;13.40;99.90
52555;DHT22;38455;52.710;6.502;2023-05-10T03:25:49;13.40;99.90
52555;DHT22;38455;52.710;6.502;2023-05-10T03:28:16;13.40;99.90
52555;DHT22;38455;52.710;6.502;2023-05-10T03:30:43;13.40;99.90
52555;DHT22;38455;52.710;6.502;2023-05-10T03:33:10;13.40;99.90
52555;DHT22;38455;52.710;6.502;2023-05-10T03:35:36;13.40;99.90
52555;DHT22;38455;52.710;6.502;2023-05-10T03:38:02;13.40;99.90
52555;DHT22;38455;52.710;6.502;2023-05-10T03:40:28;13.40;99.90
52555;DHT22;38455;52.710;6.502;2023-05-10T03:43:00;13.40;99.90
52555;DHT22;38455;52.710;6.502;2023-05-10T03:45:26;13.40;99.90
52555;DHT22;38455;52.710;6.502;2023-05-10T03:47:52;13.40;99.90
52555;DHT22;38455;52.710;6.502;2023-05-10T03:50:18;13.40;99.90
52555;DHT22;38455;52.710;6.502;2023-05-10T03:52:44;13.40;99.90
52555;DHT22;38455;52.710;6.502;2023-05-10T03:55:10;13.40;99.90
52555;DHT22;38455;52.710;6.502;2023-05-10T03:57:35;13.40;99.90
52555;DHT22;38455;52.710;6.502;2023-05-10T04:00:02;13.40;99.90
52555;DHT22;38455;52.710;6.502;2023-05-10T04:02:28;13.40;99.90
52555;DHT22;38455;52.710;6.502;2023-05-10T04:04:55;13.40;99.90
52555;DHT22;38455;52.710;6.502;2023-05-10T04:07:21;13.40;99.90
52555;DHT22;38455;52.710;6.502;2023-05-10T04:09:46;13.40;99.90
52555;DHT22;38455;52.710;6.502;2023-05-10T04:12:12;13.40;99.90
52555;DHT22;38455;52.710;6.502;2023-05-10T04:14:38;13.40;99.90
52555;DHT22;38455;52.710;6.502;2023-05-10T04:17:03;13.40;99.90
52555;DHT22;38455;52.710;6.502;2023-05-10T04:19:32;13.40;99.90
52555;DHT22;38455;52.710;6.502;2023-05-10T04:21:58;13.40;99.90
52555;DHT22;38455;52.710;6.502;2023-05-10T04:24:24;13.40;99.90
52555;DHT22;38455;52.710;6.502;2023-05-10T04:26:50;13.30;99.90
52555;DHT22;38455;52.710;6.502;2023-05-10T04:29:16;13.30;99.90
52555;DHT22;38455;52.710;6.502;2023-05-10T04:31:42;13.30;99.90
52555;DHT22;38455;52.710;6.502;2023-05-10T04:34:07;13.20;99.90
52555;DHT22;38455;52.710;6.502;2023-05-10T04:36:33;13.30;99.90
52555;DHT22;38455;52.710;6.502;2023-05-10T04:39:01;13.20;99.90
52555;DHT22;38455;52.710;6.502;2023-05-10T04:41:28;13.30;99.90
52555;DHT22;38455;52.710;6.502;2023-05-10T04:43:53;13.30;99.90
52555;DHT22;38455;52.710;6.502;2023-05-10T04:46:19;13.30;99.90
52555;DHT22;38455;52.710;6.502;2023-05-10T04:48:45;13.30;99.90
52555;DHT22;38455;52.710;6.502;2023-05-10T04:51:11;13.30;99.90
52555;DHT22;38455;52.710;6.502;2023-05-10T04:53:36;13.20;99.90
52555;DHT22;38455;52.710;6.502;2023-05-10T04:56:02;13.20;99.90
52555;DHT22;38455;52.710;6.502;2023-05-10T04:58:28;13.20;99.90
52555;DHT22;38455;52.710;6.502;2023-05-10T05:00:53;13.20;99.90
52555;DHT22;38455;52.710;6.502;2023-05-10T05:03:19;13.30;99.90
52555;DHT22;38455;52.710;6.502;2023-05-10T05:05:45;13.30;99.90
52555;DHT22;38455;52.710;6.502;2023-05-10T05:08:10;13.30;99.90
52555;DHT22;38455;52.710;6.502;2023-05-10T05:10:36;13.30;99.90
52555;DHT22;38455;52.710;6.502;2023-05-10T05:13:02;13.30;99.90
52555;DHT22;38455;52.710;6.502;2023-05-10T05:15:27;13.30;99.90
52555;DHT22;38455;52.710;6.502;2023-05-10T05:17:53;13.30;99.90
52555;DHT22;38455;52.710;6.502;2023-05-10T05:20:19;13.30;99.90
52555;DHT22;38455;52.710;6.502;2023-05-10T05:22:44;13.40;99.90
52555;DHT22;38455;52.710;6.502;2023-05-10T05:25:10;13.40;99.90
52555;DHT22;38455;52.710;6.502;2023-05-10T05:27:37;13.40;99.90
52555;DHT22;38455;52.710;6.502;2023-05-10T05:30:03;13.40;99.90
52555;DHT22;38455;52.710;6.502;2023-05-10T05:32:29;13.40;99.90
52555;DHT22;38455;52.710;6.502;2023-05-10T05:34:56;13.40;99.90
52555;DHT22;38455;52.710;6.502;2023-05-10T05:37:21;13.40;99.90
52555;DHT22;38455;52.710;6.502;2023-05-10T05:39:48;13.40;99.90
52555;DHT22;38455;52.710;6.502;2023-05-10T05:42:14;13.40;99.90
52555;DHT22;38455;52.710;6.502;2023-05-10T05:44:41;13.40;99.90
52555;DHT22;38455;52.710;6.502;2023-05-10T05:47:06;13.50;99.90
52555;DHT22;38455;52.710;6.502;2023-05-10T05:49:32;13.50;99.90
52555;DHT22;38455;52.710;6.502;2023-05-10T05:52:02;13.60;99.90
52555;DHT22;38455;52.710;6.502;2023-05-10T05:54:28;13.60;99.90
52555;DHT22;38455;52.710;6.502;2023-05-10T05:56:58;13.60;99.90
52555;DHT22;38455;52.710;6.502;2023-05-10T05:59:24;13.70;99.90
52555;DHT22;38455;52.710;6.502;2023-05-10T06:01:49;13.70;99.90
52555;DHT22;38455;52.710;6.502;2023-05-10T06:04:15;13.70;99.90
52555;DHT22;38455;52.710;6.502;2023-05-10T06:06:41;13.70;99.90
52555;DHT22;38455;52.710;6.502;2023-05-10T06:09:08;13.70;99.90
52555;DHT22;38455;52.710;6.502;2023-05-10T06:11:34;13.70;99.90
52555;DHT22;38455;52.710;6.502;2023-05-10T06:14:00;13.80;99.90
52555;DHT22;38455;52.710;6.502;2023-05-10T06:16:26;13.80;99.90
52555;DHT22;38455;52.710;6.502;2023-05-10T06:18:51;13.80;99.90
52555;DHT22;38455;52.710;6.502;2023-05-10T06:21:17;13.90;99.90
52555;DHT22;38455;52.710;6.502;2023-05-10T06:23:42;14.00;99.90
52555;DHT22;38455;52.710;6.502;2023-05-10T06:26:09;14.20;99.90
52555;DHT22;38455;52.710;6.502;2023-05-10T06:28:35;14.40;99.90
52555;DHT22;38455;52.710;6.502;2023-05-10T06:31:03;14.50;99.90
52555;DHT22;38455;52.710;6.502;2023-05-10T06:33:29;14.60;99.90
52555;DHT22;38455;52.710;6.502;2023-05-10T06:35:55;14.70;99.90
52555;DHT22;38455;52.710;6.502;2023-05-10T06:38:21;14.70;99.90
52555;DHT22;38455;52.710;6.502;2023-05-10T06:40:47;14.70;99.90
52555;DHT22;38455;52.710;6.502;2023-05-10T06:43:13;14.70;99.90
52555;DHT22;38455;52.710;6.502;2023-05-10T06:45:38;14.70;99.90
52555;DHT22;38455;52.710;6.502;2023-05-10T06:48:04;14.80;99.90
52555;DHT22;38455;52.710;6.502;2023-05-10T06:50:30;14.80;99.90
52555;DHT22;38455;52.710;6.502;2023-05-10T06:52:55;14.80;99.90
52555;DHT22;38455;52.710;6.502;2023-05-10T06:55:21;14.80;99.90
52555;DHT22;38455;52.710;6.502;2023-05-10T06:57:47;14.90;99.90
52555;DHT22;38455;52.710;6.502;2023-05-10T07:00:13;14.90;99.90
52555;DHT22;38455;52.710;6.502;2023-05-10T07:02:39;15.00;99.90
52555;DHT22;38455;52.710;6.502;2023-05-10T07:05:06;15.10;99.90
52555;DHT22;38455;52.710;6.502;2023-05-10T07:07:31;15.00;99.90
52555;DHT22;38455;52.710;6.502;2023-05-10T07:09:57;15.00;99.90
52555;DHT22;38455;52.710;6.502;2023-05-10T07:12:23;14.90;99.90
52555;DHT22;38455;52.710;6.502;2023-05-10T07:14:49;14.90;99.90
52555;DHT22;38455;52.710;6.502;2023-05-10T07:17:15;14.90;99.90
52555;DHT22;38455;52.710;6.502;2023-05-10T07:19:40;14.90;99.90
52555;DHT22;38455;52.710;6.502;2023-05-10T07:22:06;14.90;99.90
52555;DHT22;38455;52.710;6.502;2023-05-10T07:24:32;15.00;99.90
52555;DHT22;38455;52.710;6.502;2023-05-10T07:26:58;15.00;99.90
52555;DHT22;38455;52.710;6.502;2023-05-10T07:29:24;15.00;99.90
52555;DHT22;38455;52.710;6.502;2023-05-10T07:31:50;15.10;99.90
52555;DHT22;38455;52.710;6.502;2023-05-10T07:34:16;15.20;99.90
52555;DHT22;38455;52.710;6.502;2023-05-10T07:36:41;15.20;99.90
52555;DHT22;38455;52.710;6.502;2023-05-10T07:39:07;15.30;99.90
52555;DHT22;38455;52.710;6.502;2023-05-10T07:41:33;15.30;99.90
52555;DHT22;38455;52.710;6.502;2023-05-10T07:43:58;15.30;99.90
52555;DHT22;38455;52.710;6.502;2023-05-10T07:46:24;15.30;99.90
52555;DHT22;38455;52.710;6.502;2023-05-10T07:48:49;15.40;99.90
52555;DHT22;38455;52.710;6.502;2023-05-10T07:51:15;15.30;99.90
52555;DHT22;38455;52.710;6.502;2023-05-10T07:53:41;15.40;99.90
52555;DHT22;38455;52.710;6.502;2023-05-10T07:56:27;15.40;99.90
52555;DHT22;38455;52.710;6.502;2023-05-10T07:59:02;15.50;99.90
52555;DHT22;38455;52.710;6.502;2023-05-10T08:01:33;15.60;99.90
52555;DHT22;38455;52.710;6.502;2023-05-10T08:04:00;15.60;99.90
52555;DHT22;38455;52.710;6.502;2023-05-10T08:06:26;15.60;99.90
52555;DHT22;38455;52.710;6.502;2023-05-10T08:08:55;15.70;99.90
52555;DHT22;38455;52.710;6.502;2023-05-10T08:11:21;15.80;99.90
52555;DHT22;38455;52.710;6.502;2023-05-10T08:13:48;16.10;99.90
52555;DHT22;38455;52.710;6.502;2023-05-10T08:16:14;16.60;99.90
52555;DHT22;38455;52.710;6.502;2023-05-10T08:18:40;16.90;99.90
52555;DHT22;38455;52.710;6.502;2023-05-10T08:21:06;17.10;99.90
52555;DHT22;38455;52.710;6.502;2023-05-10T08:23:32;17.40;99.90
52555;DHT22;38455;52.710;6.502;2023-05-10T08:25:57;17.50;99.90
52555;DHT22;38455;52.710;6.502;2023-05-10T08:28:23;17.40;99.90
52555;DHT22;38455;52.710;6.502;2023-05-10T08:30:50;17.40;99.90
52555;DHT22;38455;52.710;6.502;2023-05-10T08:33:17;17.40;99.90
52555;DHT22;38455;52.710;6.502;2023-05-10T08:35:43;17.40;99.90
52555;DHT22;38455;52.710;6.502;2023-05-10T08:38:08;17.30;99.90
52555;DHT22;38455;52.710;6.502;2023-05-10T08:40:34;17.30;99.90
52555;DHT22;38455;52.710;6.502;2023-05-10T08:43:07;17.20;99.90
52555;DHT22;38455;52.710;6.502;2023-05-10T08:45:38;17.10;99.90
52555;DHT22;38455;52.710;6.502;2023-05-10T08:48:06;17.10;99.90
52555;DHT22;38455;52.710;6.502;2023-05-10T08:50:33;16.90;99.90
52555;DHT22;38455;52.710;6.502;2023-05-10T08:53:00;16.80;99.90
52555;DHT22;38455;52.710;6.502;2023-05-10T08:55:28;16.80;99.90
52555;DHT22;38455;52.710;6.502;2023-05-10T08:57:54;16.60;99.90
52555;DHT22;38455;52.710;6.502;2023-05-10T09:00:20;16.60;99.90
52555;DHT22;38455;52.710;6.502;2023-05-10T09:02:49;16.50;99.90
52555;DHT22;38455;52.710;6.502;2023-05-10T09:05:15;16.60;99.90
52555;DHT22;38455;52.710;6.502;2023-05-10T09:07:43;16.60;99.90
52555;DHT22;38455;52.710;6.502;2023-05-10T09:10:09;16.70;99.90
52555;DHT22;38455;52.710;6.502;2023-05-10T09:12:36;16.90;99.90
52555;DHT22;38455;52.710;6.502;2023-05-10T09:15:02;16.90;99.90
52555;DHT22;38455;52.710;6.502;2023-05-10T09:17:29;16.90;99.90
52555;DHT22;38455;52.710;6.502;2023-05-10T09:19:59;16.80;99.90
52555;DHT22;38455;52.710;6.502;2023-05-10T09:22:25;16.80;99.90
52555;DHT22;38455;52.710;6.502;2023-05-10T09:27:36;16.80;99.90
52555;DHT22;38455;52.710;6.502;2023-05-10T09:30:02;16.80;99.90
52555;DHT22;38455;52.710;6.502;2023-05-10T09:32:41;16.80;99.90
52555;DHT22;38455;52.710;6.502;2023-05-10T09:37:40;16.70;99.90
52555;DHT22;38455;52.710;6.502;2023-05-10T09:40:19;16.70;99.90
52555;DHT22;38455;52.710;6.502;2023-05-10T09:45:26;16.70;99.90
52555;DHT22;38455;52.710;6.502;2023-05-10T09:47:53;16.80;99.90
52555;DHT22;38455;52.710;6.502;2023-05-10T09:50:19;16.90;99.90
52555;DHT22;38455;52.710;6.502;2023-05-10T09:52:46;17.00;99.90
52555;DHT22;38455;52.710;6.502;2023-05-10T09:55:12;17.00;99.90
52555;DHT22;38455;52.710;6.502;2023-05-10T09:57:38;16.80;99.90
52555;DHT22;38455;52.710;6.502;2023-05-10T10:00:05;16.80;99.90
52555;DHT22;38455;52.710;6.502;2023-05-10T10:02:31;16.80;99.90
52555;DHT22;38455;52.710;6.502;2023-05-10T10:04:57;16.80;99.90
52555;DHT22;38455;52.710;6.502;2023-05-10T10:07:24;16.80;99.90
52555;DHT22;38455;52.710;6.502;2023-05-10T10:09:53;16.90;99.90
52555;DHT22;38455;52.710;6.502;2023-05-10T10:12:19;16.90;99.90
52555;DHT22;38455;52.710;6.502;2023-05-10T10:14:47;16.90;99.90
52555;DHT22;38455;52.710;6.502;2023-05-10T10:17:13;16.90;99.90
52555;DHT22;38455;52.710;6.502;2023-05-10T10:19:40;16.80;99.90
52555;DHT22;38455;52.710;6.502;2023-05-10T10:22:06;16.70;99.90
52555;DHT22;38455;52.710;6.502;2023-05-10T10:24:32;16.70;99.90
52555;DHT22;38455;52.710;6.502;2023-05-10T10:35:02;16.90;99.90
52555;DHT22;38455;52.710;6.502;2023-05-10T10:37:44;16.90;99.90
52555;DHT22;38455;52.710;6.502;2023-05-10T10:40:43;16.90;99.90
52555;DHT22;38455;52.710;6.502;2023-05-10T10:43:22;16.90;99.90
52555;DHT22;38455;52.710;6.502;2023-05-10T10:46:11;16.90;99.90
52555;DHT22;38455;52.710;6.502;2023-05-10T10:48:38;16.90;99.90
52555;DHT22;38455;52.710;6.502;2023-05-10T10:51:04;16.90;99.90
52555;DHT22;38455;52.710;6.502;2023-05-10T10:53:30;17.00;99.90
52555;DHT22;38455;52.710;6.502;2023-05-10T10:56:07;17.10;99.90
52555;DHT22;38455;52.710;6.502;2023-05-10T10:58:35;17.30;99.90
52555;DHT22;38455;52.710;6.502;2023-05-10T11:01:17;17.30;99.90
52555;DHT22;38455;52.710;6.502;2023-05-10T11:04:18;17.40;99.90
52555;DHT22;38455;52.710;6.502;2023-05-10T11:06:45;17.50;99.90
52555;DHT22;38455;52.710;6.502;2023-05-10T11:09:11;17.50;99.90
52555;DHT22;38455;52.710;6.502;2023-05-10T11:11:50;17.60;99.90
52555;DHT22;38455;52.710;6.502;2023-05-10T11:14:20;17.60;99.90
52555;DHT22;38455;52.710;6.502;2023-05-10T11:16:46;17.60;99.90
52555;DHT22;38455;52.710;6.502;2023-05-10T11:19:14;17.70;99.90
52555;DHT22;38455;52.710;6.502;2023-05-10T11:21:51;17.70;99.90
52555;DHT22;38455;52.710;6.502;2023-05-10T11:24:21;17.80;99.90
52555;DHT22;38455;52.710;6.502;2023-05-10T11:26:50;17.80;99.90
52555;DHT22;38455;52.710;6.502;2023-05-10T11:29:16;17.80;99.90
52555;DHT22;38455;52.710;6.502;2023-05-10T11:31:46;17.70;99.90
52555;DHT22;38455;52.710;6.502;2023-05-10T11:34:25;17.60;99.90
52555;DHT22;38455;52.710;6.502;2023-05-10T11:36:52;17.50;99.90
52555;DHT22;38455;52.710;6.502;2023-05-10T11:39:19;17.30;99.90
52555;DHT22;38455;52.710;6.502;2023-05-10T11:41:48;17.30;99.90
52555;DHT22;38455;52.710;6.502;2023-05-10T11:44:14;17.30;99.90
52555;DHT22;38455;52.710;6.502;2023-05-10T11:46:39;17.30;99.90
52555;DHT22;38455;52.710;6.502;2023-05-10T11:49:07;17.40;99.90
52555;DHT22;38455;52.710;6.502;2023-05-10T11:51:34;17.40;99.90
52555;DHT22;38455;52.710;6.502;2023-05-10T11:54:05;17.40;99.90
52555;DHT22;38455;52.710;6.502;2023-05-10T11:56:32;17.50;99.90
52555;DHT22;38455;52.710;6.502;2023-05-10T11:58:58;17.50;99.90
52555;DHT22;38455;52.710;6.502;2023-05-10T12:01:26;17.50;99.90
52555;DHT22;38455;52.710;6.502;2023-05-10T12:03:53;17.50;99.90
52555;DHT22;38455;52.710;6.502;2023-05-10T12:06:20;17.50;99.90
52555;DHT22;38455;52.710;6.502;2023-05-10T12:08:47;17.60;99.90
52555;DHT22;38455;52.710;6.502;2023-05-10T12:11:13;17.50;99.90
52555;DHT22;38455;52.710;6.502;2023-05-10T12:13:42;17.50;99.90
52555;DHT22;38455;52.710;6.502;2023-05-10T12:16:18;17.50;99.90
52555;DHT22;38455;52.710;6.502;2023-05-10T12:18:44;17.50;99.90
52555;DHT22;38455;52.710;6.502;2023-05-10T12:21:13;17.40;99.90
52555;DHT22;38455;52.710;6.502;2023-05-10T12:23:41;17.40;99.90
52555;DHT22;38455;52.710;6.502;2023-05-10T12:26:09;17.30;99.90
52555;DHT22;38455;52.710;6.502;2023-05-10T12:28:37;17.30;99.90
52555;DHT22;38455;52.710;6.502;2023-05-10T12:31:03;17.40;99.90
52555;DHT22;38455;52.710;6.502;2023-05-10T12:33:43;17.20;99.90
52555;DHT22;38455;52.710;6.502;2023-05-10T12:36:10;17.30;99.90
52555;DHT22;38455;52.710;6.502;2023-05-10T12:38:38;17.20;99.90
52555;DHT22;38455;52.710;6.502;2023-05-10T12:41:09;17.30;99.90
52555;DHT22;38455;52.710;6.502;2023-05-10T12:43:35;17.40;99.90
52555;DHT22;38455;52.710;6.502;2023-05-10T12:46:08;17.50;99.90
52555;DHT22;38455;52.710;6.502;2023-05-10T12:48:34;17.60;99.90
52555;DHT22;38455;52.710;6.502;2023-05-10T12:51:01;17.60;99.90
52555;DHT22;38455;52.710;6.502;2023-05-10T12:53:27;17.70;99.90
52555;DHT22;38455;52.710;6.502;2023-05-10T12:55:52;17.80;99.90
52555;DHT22;38455;52.710;6.502;2023-05-10T12:58:19;17.90;99.90
52555;DHT22;38455;52.710;6.502;2023-05-10T13:00:45;18.00;99.90
52555;DHT22;38455;52.710;6.502;2023-05-10T13:03:11;18.00;99.90
52555;DHT22;38455;52.710;6.502;2023-05-10T13:05:37;18.20;99.90
52555;DHT22;38455;52.710;6.502;2023-05-10T13:08:02;18.20;99.90
52555;DHT22;38455;52.710;6.502;2023-05-10T13:10:31;18.20;99.90
52555;DHT22;38455;52.710;6.502;2023-05-10T13:12:57;18.30;99.90
52555;DHT22;38455;52.710;6.502;2023-05-10T13:15:23;18.30;99.90
52555;DHT22;38455;52.710;6.502;2023-05-10T13:17:49;18.30;99.90
52555;DHT22;38455;52.710;6.502;2023-05-10T13:20:15;18.20;99.90
52555;DHT22;38455;52.710;6.502;2023-05-10T13:22:41;18.00;99.90
52555;DHT22;38455;52.710;6.502;2023-05-10T13:25:07;17.90;99.90
52555;DHT22;38455;52.710;6.502;2023-05-10T13:27:33;17.80;99.90
52555;DHT22;38455;52.710;6.502;2023-05-10T13:29:59;17.60;99.90
52555;DHT22;38455;52.710;6.502;2023-05-10T13:32:25;17.50;99.90
52555;DHT22;38455;52.710;6.502;2023-05-10T13:34:51;17.40;99.90
52555;DHT22;38455;52.710;6.502;2023-05-10T13:37:17;17.30;99.90
52555;DHT22;38455;52.710;6.502;2023-05-10T13:39:42;17.30;99.90
52555;DHT22;38455;52.710;6.502;2023-05-10T13:42:08;17.30;99.90
52555;DHT22;38455;52.710;6.502;2023-05-10T13:44:34;17.30;99.90
52555;DHT22;38455;52.710;6.502;2023-05-10T13:47:00;17.30;99.90
52555;DHT22;38455;52.710;6.502;2023-05-10T13:49:25;17.30;99.90
52555;DHT22;38455;52.710;6.502;2023-05-10T13:51:51;17.30;99.90
52555;DHT22;38455;52.710;6.502;2023-05-10T13:54:17;17.20;99.90
52555;DHT22;38455;52.710;6.502;2023-05-10T13:56:45;17.20;99.90
52555;DHT22;38455;52.710;6.502;2023-05-10T13:59:13;17.30;99.90
52555;DHT22;38455;52.710;6.502;2023-05-10T14:01:40;17.10;99.90
52555;DHT22;38455;52.710;6.502;2023-05-10T14:04:05;17.20;99.90
52555;DHT22;38455;52.710;6.502;2023-05-10T14:06:32;17.30;99.90
52555;DHT22;38455;52.710;6.502;2023-05-10T14:08:58;17.30;99.90
52555;DHT22;38455;52.710;6.502;2023-05-10T14:11:24;17.30;99.90
52555;DHT22;38455;52.710;6.502;2023-05-10T14:13:49;17.40;99.90
52555;DHT22;38455;52.710;6.502;2023-05-10T14:16:15;17.40;99.90
52555;DHT22;38455;52.710;6.502;2023-05-10T14:18:41;17.40;99.90
52555;DHT22;38455;52.710;6.502;2023-05-10T14:21:07;17.40;99.90
52555;DHT22;38455;52.710;6.502;2023-05-10T14:23:32;17.30;99.90
52555;DHT22;38455;52.710;6.502;2023-05-10T14:25:58;17.20;99.90
52555;DHT22;38455;52.710;6.502;2023-05-10T14:28:23;17.10;99.90
52555;DHT22;38455;52.710;6.502;2023-05-10T14:30:50;17.00;99.90
52555;DHT22;38455;52.710;6.502;2023-05-10T14:33:17;16.90;99.90
52555;DHT22;38455;52.710;6.502;2023-05-10T14:35:42;16.90;99.90
52555;DHT22;38455;52.710;6.502;2023-05-10T14:38:08;16.80;99.90
52555;DHT22;38455;52.710;6.502;2023-05-10T14:40:34;16.70;99.90
52555;DHT22;38455;52.710;6.502;2023-05-10T14:43:00;16.70;99.90
52555;DHT22;38455;52.710;6.502;2023-05-10T14:45:25;16.70;99.90
52555;DHT22;38455;52.710;6.502;2023-05-10T14:47:51;16.60;99.90
52555;DHT22;38455;52.710;6.502;2023-05-10T14:50:17;16.60;99.90
52555;DHT22;38455;52.710;6.502;2023-05-10T14:52:43;16.60;99.90
52555;DHT22;38455;52.710;6.502;2023-05-10T14:55:10;16.60;99.90
52555;DHT22;38455;52.710;6.502;2023-05-10T14:57:35;16.60;99.90
52555;DHT22;38455;52.710;6.502;2023-05-10T15:00:02;16.60;99.90
52555;DHT22;38455;52.710;6.502;2023-05-10T15:02:27;16.70;99.90
52555;DHT22;38455;52.710;6.502;2023-05-10T15:04:53;16.70;99.90
52555;DHT22;38455;52.710;6.502;2023-05-10T15:07:19;16.70;99.90
52555;DHT22;38455;52.710;6.502;2023-05-10T15:09:45;16.80;99.90
52555;DHT22;38455;52.710;6.502;2023-05-10T15:12:11;16.80;99.90
52555;DHT22;38455;52.710;6.502;2023-05-10T15:14:36;16.80;99.90
52555;DHT22;38455;52.710;6.502;2023-05-10T15:17:02;16.90;99.90
52555;DHT22;38455;52.710;6.502;2023-05-10T15:19:28;17.00;99.90
52555;DHT22;38455;52.710;6.502;2023-05-10T15:21:55;17.00;99.90
52555;DHT22;38455;52.710;6.502;2023-05-10T15:24:21;17.00;99.90
52555;DHT22;38455;52.710;6.502;2023-05-10T15:26:47;17.10;99.90
52555;DHT22;38455;52.710;6.502;2023-05-10T15:29:13;17.20;99.90
52555;DHT22;38455;52.710;6.502;2023-05-10T15:31:46;17.20;99.90
52555;DHT22;38455;52.710;6.502;2023-05-10T15:34:11;17.30;99.90
52555;DHT22;38455;52.710;6.502;2023-05-10T15:36:38;17.30;99.90
52555;DHT22;38455;52.710;6.502;2023-05-10T15:39:03;17.30;99.90
52555;DHT22;38455;52.710;6.502;2023-05-10T15:41:29;17.40;99.90
52555;DHT22;38455;52.710;6.502;2023-05-10T15:43:55;17.40;99.90
52555;DHT22;38455;52.710;6.502;2023-05-10T15:46:21;17.50;99.90
52555;DHT22;38455;52.710;6.502;2023-05-10T15:48:47;17.50;99.90
52555;DHT22;38455;52.710;6.502;2023-05-10T15:51:12;17.60;99.90
52555;DHT22;38455;52.710;6.502;2023-05-10T15:53:38;17.60;99.90
52555;DHT22;38455;52.710;6.502;2023-05-10T15:56:04;17.60;99.90
52555;DHT22;38455;52.710;6.502;2023-05-10T15:58:30;17.50;99.90
52555;DHT22;38455;52.710;6.502;2023-05-10T16:00:56;17.50;99.90